createdAt,value
2022-11-22T00:01:15.272Z,101029.00
2022-11-22T00:03:44.538Z,101035.13
2022-11-22T00:06:12.757Z,101037.91
2022-11-22T00:08:40.633Z,101042.28
2022-11-22T00:11:08.546Z,101038.88
2022-11-22T00:13:36.417Z,101029.50
2022-11-22T00:16:05.551Z,101036.31
2022-11-22T00:18:33.776Z,101034.75
2022-11-22T00:21:07.913Z,101033.94
2022-11-22T00:23:36.110Z,101032.28
2022-11-22T00:26:04.394Z,101037.41
2022-11-22T00:28:32.291Z,101031.44
2022-11-22T00:31:00.483Z,101039.25
2022-11-22T00:33:28.410Z,101034.25
2022-11-22T00:35:56.526Z,101036.03
2022-11-22T00:38:25.982Z,101045.47
2022-11-22T00:40:53.841Z,101032.69
2022-11-22T00:43:21.815Z,101042.09
2022-11-22T00:45:49.881Z,101033.47
2022-11-22T00:48:17.804Z,101037.97
2022-11-22T00:50:46.100Z,101032.22
2022-11-22T00:53:13.931Z,101037.41
2022-11-22T00:55:43.562Z,101034.63
2022-11-22T00:58:11.496Z,101038.91
2022-11-22T01:00:39.382Z,101039.00
2022-11-22T01:03:07.997Z,101037.25
2022-11-22T01:05:36.404Z,101037.25
2022-11-22T01:08:04.622Z,101035.56
2022-11-22T01:10:32.696Z,101046.69
2022-11-22T01:13:02.170Z,101042.31
2022-11-22T01:15:30.293Z,101039.75
2022-11-22T01:17:58.267Z,101046.56
2022-11-22T01:20:27.053Z,101038.91
2022-11-22T01:22:55.057Z,101033.97
2022-11-22T01:25:22.922Z,101048.09
2022-11-22T01:27:51.116Z,101043.06
2022-11-22T01:30:21.020Z,101046.63
2022-11-22T01:32:49.147Z,101054.44
2022-11-22T01:35:17.401Z,101058.09
2022-11-22T01:37:45.292Z,101061.66
2022-11-22T01:40:13.712Z,101060.81
2022-11-22T01:42:45.237Z,101065.19
2022-11-22T01:45:42.334Z,101067.22
2022-11-22T01:48:21.442Z,101069.91
2022-11-22T01:50:53.689Z,101071.75
2022-11-22T01:53:26.738Z,101074.44
2022-11-22T01:55:55.709Z,101078.53
2022-11-22T01:58:25.376Z,101078.69
2022-11-22T02:00:55.703Z,101077.09
2022-11-22T02:03:26.938Z,101081.44
2022-11-22T02:05:56.050Z,101078.63
2022-11-22T02:08:31.194Z,101082.81
2022-11-22T02:11:02.880Z,101080.25
2022-11-22T02:13:34.939Z,101088.03
2022-11-22T02:16:04.962Z,101075.44
2022-11-22T02:18:35.489Z,101084.88
2022-11-22T02:21:04.137Z,101083.78
2022-11-22T02:23:44.471Z,101076.97
2022-11-22T02:26:14.627Z,101074.31
2022-11-22T02:28:42.789Z,101080.34
2022-11-22T02:31:10.753Z,101074.19
2022-11-22T02:33:38.970Z,101069.72
2022-11-22T02:36:07.145Z,101066.88
2022-11-22T02:38:36.654Z,101068.44
2022-11-22T02:41:08.443Z,101074.31
2022-11-22T02:43:40.553Z,101078.47
2022-11-22T02:46:10.753Z,101080.13
2022-11-22T02:48:42.866Z,101083.66
2022-11-22T02:51:11.456Z,101088.75
2022-11-22T02:53:39.713Z,101084.47
2022-11-22T02:56:07.806Z,101085.28
2022-11-22T02:58:37.616Z,101085.28
2022-11-22T03:01:05.916Z,101083.59
2022-11-22T03:03:34.940Z,101086.09
2022-11-22T03:06:03.483Z,101095.66
2022-11-22T03:08:31.977Z,101099.38
2022-11-22T03:11:00.353Z,101094.63
2022-11-22T03:13:28.620Z,101100.03
2022-11-22T03:15:57.867Z,101095.84
2022-11-22T03:18:27.357Z,101098.47
2022-11-22T03:20:55.314Z,101097.69
2022-11-22T03:23:23.375Z,101095.19
2022-11-22T03:25:51.318Z,101084.91
2022-11-22T03:28:19.294Z,101084.13
2022-11-22T03:30:47.156Z,101085.97
2022-11-22T03:33:16.792Z,101078.44
2022-11-22T03:35:45.057Z,101075.03
2022-11-22T03:38:12.871Z,101084.44
2022-11-22T03:40:40.861Z,101076.03
2022-11-22T03:43:08.856Z,101076.09
2022-11-22T03:45:36.685Z,101075.28
2022-11-22T03:48:04.702Z,101074.66
2022-11-22T03:50:34.339Z,101079.22
2022-11-22T03:53:02.361Z,101081.00
2022-11-22T03:55:30.409Z,101086.25
2022-11-22T03:57:58.480Z,101092.94
2022-11-22T04:00:26.452Z,101088.56
2022-11-22T04:02:54.499Z,101100.50
2022-11-22T04:05:22.705Z,101092.84
2022-11-22T04:07:56.147Z,101096.22
2022-11-22T04:10:24.290Z,101097.88
2022-11-22T04:12:53.194Z,101086.78
2022-11-22T04:15:20.340Z,101089.34
2022-11-22T04:17:48.553Z,101090.34
2022-11-22T04:20:38.881Z,101093.09
2022-11-22T04:23:09.993Z,101103.63
2022-11-22T04:25:38.892Z,101105.28
2022-11-22T04:28:08.303Z,101100.13
2022-11-22T04:30:54.529Z,101095.78
2022-11-22T04:33:23.151Z,101102.69
2022-11-22T04:35:51.866Z,101110.31
2022-11-22T04:38:21.298Z,101115.91
2022-11-22T04:40:49.925Z,101110.03
2022-11-22T04:43:39.305Z,101123.72
2022-11-22T04:46:07.183Z,101127.13
2022-11-22T04:48:35.537Z,101134.78
2022-11-22T04:51:21.696Z,101133.94
2022-11-22T04:53:52.239Z,101135.94
2022-11-22T04:56:21.193Z,101129.28
2022-11-22T04:58:51.436Z,101122.31
2022-11-22T05:01:19.745Z,101138.19
2022-11-22T05:03:50.853Z,101144.19
2022-11-22T05:06:18.730Z,101142.56
2022-11-22T05:08:46.716Z,101139.94
2022-11-22T05:11:16.137Z,101139.81
2022-11-22T05:13:44.258Z,101132.91
2022-11-22T05:16:13.840Z,101127.66
2022-11-22T05:18:42.315Z,101141.31
2022-11-22T05:21:12.027Z,101142.34
2022-11-22T05:23:57.264Z,101139.88
2022-11-22T05:26:29.009Z,101148.38
2022-11-22T05:28:58.526Z,101143.06
2022-11-22T05:31:28.350Z,101154.84
2022-11-22T05:33:58.698Z,101153.94
2022-11-22T05:36:26.815Z,101153.09
2022-11-22T05:38:55.898Z,101153.91
2022-11-22T05:41:26.772Z,101157.28
2022-11-22T05:43:57.610Z,101161.50
2022-11-22T05:46:27.576Z,101153.69
2022-11-22T05:48:59.599Z,101155.28
2022-11-22T05:51:34.108Z,101148.44
2022-11-22T05:54:03.309Z,101150.94
2022-11-22T05:56:33.042Z,101148.28
2022-11-22T05:59:01.053Z,101155.13
2022-11-22T06:01:29.154Z,101155.31
2022-11-22T06:03:57.088Z,101158.78
2022-11-22T06:06:25.078Z,101154.53
2022-11-22T06:08:53.201Z,101153.69
2022-11-22T06:11:23.045Z,101165.63
2022-11-22T06:13:54.341Z,101156.19
2022-11-22T06:16:22.867Z,101163.84
2022-11-22T06:18:54.903Z,101162.91
2022-11-22T06:21:24.338Z,101165.38
2022-11-22T06:23:54.493Z,101168.78
2022-11-22T06:26:22.718Z,101168.81
2022-11-22T06:28:52.198Z,101179.03
2022-11-22T06:31:22.191Z,101173.81
2022-11-22T06:33:51.206Z,101173.75
2022-11-22T06:36:20.743Z,101181.38
2022-11-22T06:38:49.087Z,101182.28
2022-11-22T06:41:19.706Z,101183.88
2022-11-22T06:43:49.876Z,101184.69
2022-11-22T06:48:33.009Z,101184.84
2022-11-22T06:51:01.460Z,101191.63
2022-11-22T06:53:46.363Z,101190.78
2022-11-22T06:56:17.093Z,101190.75
2022-11-22T06:58:45.784Z,101194.16
2022-11-22T07:01:16.183Z,101196.63
2022-11-22T07:03:46.207Z,101190.63
2022-11-22T07:06:15.363Z,101195.75
2022-11-22T07:08:43.543Z,101200.97
2022-11-22T07:11:13.641Z,101214.69
2022-11-22T07:13:41.495Z,101227.72
2022-11-22T07:16:12.466Z,101227.63
2022-11-22T07:18:40.627Z,101234.31
2022-11-22T07:21:13.470Z,101230.78
2022-11-22T07:23:42.921Z,101229.88
2022-11-22T07:26:11.504Z,101234.94
2022-11-22T07:28:39.358Z,101227.19
2022-11-22T07:31:08.702Z,101233.06
2022-11-22T07:33:36.910Z,101236.50
2022-11-22T07:36:06.676Z,101232.25
2022-11-22T07:38:36.511Z,101240.75
2022-11-22T07:41:05.019Z,101234.78
2022-11-22T07:43:33.312Z,101245.03
2022-11-22T07:46:01.338Z,101239.94
2022-11-22T07:48:29.282Z,101246.81
2022-11-22T07:50:57.339Z,101254.59
2022-11-22T07:53:25.249Z,101256.28
2022-11-22T07:55:54.429Z,101255.47
2022-11-22T07:58:22.321Z,101256.31
2022-11-22T08:00:51.825Z,101262.31
2022-11-22T08:03:24.036Z,101259.69
2022-11-22T08:06:00.318Z,101261.34
2022-11-22T08:08:28.390Z,101265.59
2022-11-22T08:10:57.735Z,101255.28
2022-11-22T08:13:25.646Z,101271.56
2022-11-22T08:15:54.856Z,101269.88
2022-11-22T08:18:23.576Z,101277.63
2022-11-22T08:20:51.583Z,101283.59
2022-11-22T08:23:19.378Z,101278.47
2022-11-22T08:25:47.195Z,101283.56
2022-11-22T08:28:16.373Z,101281.03
2022-11-22T08:30:44.187Z,101296.50
2022-11-22T08:33:12.036Z,101294.81
2022-11-22T08:35:39.940Z,101289.84
2022-11-22T08:38:07.804Z,101289.00
2022-11-22T08:40:40.888Z,101292.50
2022-11-22T08:43:09.186Z,101291.69
2022-11-22T08:45:39.169Z,101295.13
2022-11-22T08:48:07.532Z,101290.09
2022-11-22T08:50:35.382Z,101292.72
2022-11-22T08:53:03.205Z,101293.56
2022-11-22T08:55:31.041Z,101295.47
2022-11-22T08:58:00.240Z,101295.53
2022-11-22T09:00:33.168Z,101294.72
2022-11-22T09:03:02.843Z,101292.19
2022-11-22T09:05:32.600Z,101288.81
2022-11-22T09:10:49.358Z,101289.66
2022-11-22T09:13:17.176Z,101298.19
2022-11-22T09:15:45.047Z,101296.44
2022-11-22T09:18:14.234Z,101295.59
2022-11-22T09:20:42.360Z,101307.50
2022-11-22T09:23:10.232Z,101305.78
2022-11-22T09:25:38.066Z,101311.72
2022-11-22T09:28:05.898Z,101325.41
2022-11-22T09:30:33.703Z,101319.28
2022-11-22T09:33:01.511Z,101315.84
2022-11-22T09:35:30.861Z,101320.88
2022-11-22T09:37:59.259Z,101324.19
2022-11-22T09:40:27.110Z,101322.47
2022-11-22T09:43:09.240Z,101317.38
2022-11-22T09:45:45.658Z,101319.09
2022-11-22T09:48:29.492Z,101328.53
2022-11-22T09:51:07.460Z,101331.84
2022-11-22T09:53:41.512Z,101319.03
2022-11-22T09:56:13.658Z,101323.22
2022-11-22T09:58:47.632Z,101326.63
2022-11-22T10:01:21.348Z,101328.22
2022-11-22T10:03:54.858Z,101326.41
2022-11-22T10:06:28.538Z,101327.13
2022-11-22T10:09:07.832Z,101326.97
2022-11-22T10:11:41.502Z,101326.84
2022-11-22T10:14:28.904Z,101325.78
2022-11-22T10:17:02.392Z,101321.31
2022-11-22T10:19:35.986Z,101327.22
2022-11-22T10:22:12.454Z,101339.22
2022-11-22T10:24:40.310Z,101339.19
2022-11-22T10:27:14.573Z,101342.56
2022-11-22T10:29:46.029Z,101340.72
2022-11-22T10:32:21.571Z,101347.53
2022-11-22T10:35:13.508Z,101349.16
2022-11-22T10:37:52.579Z,101351.63
2022-11-22T10:40:27.621Z,101356.81
2022-11-22T10:43:21.811Z,101355.84
2022-11-22T10:45:54.693Z,101358.28
2022-11-22T10:48:29.867Z,101355.56
2022-11-22T10:51:06.336Z,101357.19
2022-11-22T10:53:49.588Z,101362.22
2022-11-22T10:56:24.713Z,101370.66
2022-11-22T10:59:12.533Z,101367.94
2022-11-22T11:01:48.058Z,101368.78
2022-11-22T11:04:17.815Z,101366.97
2022-11-22T11:12:41.327Z,101373.97
2022-11-22T11:15:18.621Z,101369.66
2022-11-22T11:17:51.302Z,101368.66
2022-11-22T11:20:24.603Z,101366.88
2022-11-22T11:23:13.586Z,101375.34
2022-11-22T11:25:43.457Z,101366.75
2022-11-22T11:28:17.652Z,101365.81
2022-11-22T11:30:48.282Z,101370.97
2022-11-22T11:33:20.611Z,101369.22
2022-11-22T11:35:48.967Z,101367.47
2022-11-22T11:38:28.442Z,101364.06
2022-11-22T11:40:57.936Z,101370.91
2022-11-22T11:43:28.845Z,101375.19
2022-11-22T11:45:56.684Z,101382.03
2022-11-22T11:48:29.462Z,101374.25
2022-11-22T11:51:16.238Z,101383.72
2022-11-22T11:53:52.007Z,101377.66
2022-11-22T11:56:28.345Z,101381.09
2022-11-22T11:58:59.247Z,101385.41
2022-11-22T12:01:28.077Z,101394.00
2022-11-22T12:03:58.545Z,101399.16
2022-11-22T12:06:30.496Z,101395.75
2022-11-22T12:08:58.695Z,101395.75
2022-11-22T12:11:39.598Z,101403.41
2022-11-22T12:14:20.057Z,101403.38
2022-11-22T12:17:06.814Z,101410.16
2022-11-22T12:19:47.029Z,101410.06
2022-11-22T12:22:35.524Z,101406.75
2022-11-22T12:25:34.752Z,101411.78
2022-11-22T12:28:13.961Z,101409.09
2022-11-22T12:30:44.281Z,101408.19
2022-11-22T12:33:20.353Z,101414.16
2022-11-22T12:35:50.894Z,101414.16
2022-11-22T12:38:23.935Z,101417.56
2022-11-22T12:40:55.730Z,101409.78
2022-11-22T12:43:30.813Z,101409.78
2022-11-22T12:46:02.082Z,101409.91
2022-11-22T12:48:38.222Z,101407.38
2022-11-22T12:51:12.313Z,101409.97
2022-11-22T12:53:44.461Z,101401.41
2022-11-22T12:56:22.598Z,101409.16
2022-11-22T12:58:58.773Z,101406.63
2022-11-22T13:01:31.571Z,101409.16
2022-11-22T13:04:04.984Z,101409.97
2022-11-22T13:06:39.861Z,101397.91
2022-11-22T13:09:13.137Z,101399.56
2022-11-22T13:11:48.621Z,101406.38
2022-11-22T13:14:22.192Z,101399.41
2022-11-22T13:16:51.300Z,101401.13
2022-11-22T13:19:23.369Z,101390.84
2022-11-22T13:22:09.047Z,101389.88
2022-11-22T13:24:48.082Z,101389.88
2022-11-22T13:27:21.669Z,101399.22
2022-11-22T13:29:55.621Z,101400.84
2022-11-22T13:32:25.453Z,101412.88
2022-11-22T13:35:25.090Z,101414.50
2022-11-22T13:37:55.785Z,101406.75
2022-11-22T13:40:28.531Z,101410.19
2022-11-22T13:43:48.104Z,101408.53
2022-11-22T13:47:04.818Z,101417.97
2022-11-22T13:49:46.857Z,101417.16
2022-11-22T13:52:44.881Z,101430.94
2022-11-22T13:55:41.840Z,101428.38
2022-11-22T13:58:51.199Z,101431.88
2022-11-22T14:02:07.537Z,101424.19
2022-11-22T14:04:44.785Z,101420.69
2022-11-22T14:07:35.859Z,101418.13
2022-11-22T14:10:06.065Z,101419.91
2022-11-22T14:12:49.617Z,101420.94
2022-11-22T14:15:30.041Z,101415.00
2022-11-22T14:18:21.800Z,101418.56
2022-11-22T14:21:02.781Z,101420.47
2022-11-22T14:23:41.913Z,101430.06
2022-11-22T14:26:20.818Z,101427.63
2022-11-22T14:29:38.278Z,101435.59
2022-11-22T14:32:15.965Z,101439.97
2022-11-22T14:35:17.098Z,101446.16
2022-11-22T14:37:48.845Z,101444.50
2022-11-22T14:40:35.351Z,101448.81
2022-11-22T14:43:07.185Z,101449.84
2022-11-22T14:45:44.338Z,101450.78
2022-11-22T14:48:19.233Z,101448.22
2022-11-22T14:50:51.664Z,101452.56
2022-11-22T14:53:31.302Z,101460.31
2022-11-22T14:56:05.641Z,101467.28
2022-11-22T14:58:39.299Z,101467.59
2022-11-22T15:01:35.597Z,101476.34
2022-11-22T15:09:13.963Z,101473.44
2022-11-22T15:09:15.083Z,101479.06
2022-11-22T15:10:45.390Z,101474.34
2022-11-22T15:13:43.989Z,101473.66
2022-11-22T15:57:26.348Z,101463.94
2022-11-22T15:59:55.828Z,101475.88
2022-11-22T16:02:27.755Z,101479.22
2022-11-22T16:06:09.245Z,101468.88
2022-11-22T16:07:49.043Z,101476.59
2022-11-22T16:10:21.629Z,101470.56
2022-11-22T16:12:49.698Z,101478.31
2022-11-22T16:15:25.134Z,101476.53
2022-11-22T16:17:59.554Z,101481.66
2022-11-22T16:20:34.050Z,101488.50
2022-11-22T16:23:26.189Z,101488.47
2022-11-22T16:25:57.573Z,101492.69
2022-11-22T16:28:32.533Z,101493.41
2022-11-22T16:31:03.343Z,101501.88
2022-11-22T16:33:33.406Z,101502.63
2022-11-22T16:36:01.713Z,101511.06
2022-11-22T16:38:30.937Z,101512.56
2022-11-22T16:41:00.206Z,101515.03
2022-11-22T16:43:33.988Z,101517.44
2022-11-22T16:46:01.931Z,101518.22
2022-11-22T16:48:33.297Z,101516.31
2022-11-22T16:51:06.153Z,101515.25
2022-11-22T16:53:43.178Z,101510.88
2022-11-22T16:56:18.126Z,101521.88
2022-11-22T16:58:46.175Z,101523.44
2022-11-22T17:01:16.265Z,101512.16
2022-11-22T17:03:45.074Z,101517.22
2022-11-22T17:06:18.742Z,101518.03
2022-11-22T17:08:47.757Z,101513.66
2022-11-22T17:11:17.956Z,101523.81
2022-11-22T17:13:46.495Z,101513.50
2022-11-22T17:16:15.233Z,101513.41
2022-11-22T17:18:43.111Z,101509.06
2022-11-22T17:21:19.009Z,101511.53
2022-11-22T17:23:47.114Z,101516.47
2022-11-22T17:26:14.938Z,101524.06
2022-11-22T17:28:42.842Z,101524.75
2022-11-22T17:31:13.891Z,101528.97
2022-11-22T17:33:41.909Z,101522.91
2022-11-22T17:36:22.102Z,101525.41
2022-11-22T17:38:52.798Z,101531.47
2022-11-22T17:41:20.757Z,101532.28
2022-11-22T17:43:48.888Z,101538.31
2022-11-22T17:46:16.735Z,101533.94
2022-11-22T17:48:44.754Z,101532.22
2022-11-22T17:51:13.984Z,101534.78
2022-11-22T17:53:43.466Z,101536.47
2022-11-22T17:56:12.092Z,101545.91
2022-11-22T17:58:40.445Z,101538.19
2022-11-22T18:01:10.185Z,101537.28
2022-11-22T18:03:38.109Z,101536.38
2022-11-22T18:06:06.982Z,101533.81
2022-11-22T18:08:35.525Z,101526.91
2022-11-22T18:11:05.692Z,101538.03
2022-11-22T18:13:34.075Z,101541.47
2022-11-22T18:16:04.006Z,101538.03
2022-11-22T18:21:20.136Z,101541.38
2022-11-22T18:23:48.391Z,101537.06
2022-11-22T18:34:42.625Z,101530.16
2022-11-22T18:37:10.557Z,101535.25
2022-11-22T18:39:40.000Z,101532.66
2022-11-22T18:42:13.002Z,101530.94
2022-11-22T18:44:41.074Z,101522.41
2022-11-22T18:47:09.806Z,101535.34
2022-11-22T18:49:37.878Z,101538.84
2022-11-22T18:52:06.396Z,101532.81
2022-11-22T18:54:34.485Z,101547.41
2022-11-22T18:57:02.618Z,101557.72
2022-11-22T18:59:32.320Z,101558.59
2022-11-22T19:02:00.463Z,101557.78
2022-11-22T19:04:28.748Z,101559.50
2022-11-22T19:06:57.010Z,101555.13
2022-11-22T19:09:24.904Z,101561.97
2022-11-22T19:11:58.341Z,101553.41
2022-11-22T19:14:29.003Z,101545.72
2022-11-22T19:16:58.720Z,101543.16
2022-11-22T19:19:26.546Z,101538.03
2022-11-22T19:21:54.371Z,101544.06
2022-11-22T19:24:22.218Z,101541.44
2022-11-22T19:26:50.266Z,101542.31
2022-11-22T19:29:18.435Z,101534.53
2022-11-22T19:31:46.408Z,101527.59
2022-11-22T19:34:15.709Z,101530.09
2022-11-22T19:36:43.859Z,101530.88
2022-11-22T19:39:13.401Z,101525.63
2022-11-22T19:41:42.555Z,101531.66
2022-11-22T19:44:10.945Z,101527.28
2022-11-22T19:46:41.527Z,101519.56
2022-11-22T19:49:10.410Z,101512.59
2022-11-22T19:51:39.824Z,101514.31
2022-11-22T19:54:08.230Z,101516.91
2022-11-22T19:56:37.481Z,101514.31
2022-11-22T19:59:09.832Z,101514.25
2022-11-22T20:01:37.917Z,101515.97
2022-11-22T20:04:07.418Z,101510.78
2022-11-22T20:06:36.613Z,101511.66
2022-11-22T20:09:10.368Z,101510.78
2022-11-22T20:11:39.695Z,101511.59
2022-11-22T20:14:09.381Z,101516.75
2022-11-22T20:16:39.221Z,101519.31
2022-11-22T20:19:09.616Z,101523.56
2022-11-22T20:21:38.398Z,101515.78
2022-11-22T20:24:08.393Z,101524.38
2022-11-22T20:26:36.553Z,101516.66
2022-11-22T20:29:08.017Z,101512.38
2022-11-22T20:31:37.336Z,101517.53
2022-11-22T20:34:05.351Z,101516.69
2022-11-22T20:36:35.041Z,101513.25
2022-11-22T20:39:08.619Z,101516.72
2022-11-22T20:41:40.025Z,101515.91
2022-11-22T20:44:08.316Z,101514.25
2022-11-22T20:46:38.265Z,101524.53
2022-11-22T20:49:06.096Z,101527.94
2022-11-22T20:51:35.916Z,101531.34
2022-11-22T20:54:03.966Z,101528.69
2022-11-22T20:56:31.812Z,101538.97
2022-11-22T20:59:01.160Z,101532.03
2022-11-22T21:01:32.263Z,101544.94
2022-11-22T21:04:00.150Z,101552.59
2022-11-22T21:06:28.877Z,101551.78
2022-11-22T21:08:56.763Z,101545.81
2022-11-22T21:11:26.454Z,101556.03
2022-11-22T21:13:56.111Z,101555.16
2022-11-22T21:16:28.049Z,101550.81
2022-11-22T21:18:57.496Z,101543.09
2022-11-22T21:21:26.653Z,101538.78
2022-11-22T21:23:56.569Z,101551.69
2022-11-22T21:26:26.064Z,101549.13
2022-11-22T21:28:54.081Z,101538.78
2022-11-22T21:31:23.096Z,101542.19
2022-11-22T21:33:53.162Z,101548.19
2022-11-22T21:36:21.880Z,101553.41
2022-11-22T21:38:49.902Z,101551.69
2022-11-22T21:44:07.897Z,101556.81
2022-11-22T21:46:35.860Z,101556.81
2022-11-22T21:49:05.124Z,101555.06
2022-11-22T21:51:33.098Z,101553.34
2022-11-22T21:54:02.085Z,101563.63
2022-11-22T21:56:30.350Z,101566.16
2022-11-22T21:58:58.275Z,101555.81
2022-11-22T22:01:26.797Z,101565.25
2022-11-22T22:03:54.847Z,101558.38
2022-11-22T22:06:25.123Z,101563.44
2022-11-22T22:08:53.015Z,101563.44
2022-11-22T22:11:21.008Z,101553.16
2022-11-22T22:13:48.892Z,101549.72
2022-11-22T22:16:19.223Z,101554.06
2022-11-22T22:18:47.569Z,101552.31
2022-11-22T22:21:16.456Z,101560.94
2022-11-22T22:23:46.541Z,101557.47
2022-11-22T22:26:15.986Z,101563.44
2022-11-22T22:28:45.195Z,101560.84
2022-11-22T22:31:14.562Z,101566.84
2022-11-22T22:33:42.989Z,101564.31
2022-11-22T22:36:11.782Z,101567.72
2022-11-22T22:38:39.798Z,101568.63
2022-11-22T22:41:11.945Z,101576.28
2022-11-22T22:43:41.830Z,101571.22
2022-11-22T22:46:13.570Z,101577.22
2022-11-22T22:48:41.912Z,101576.41
2022-11-22T22:51:12.673Z,101572.97
2022-11-22T22:53:40.545Z,101573.00
2022-11-22T22:56:11.104Z,101583.22
2022-11-22T22:58:39.129Z,101582.34
2022-11-22T23:01:09.026Z,101578.84
2022-11-22T23:03:38.363Z,101582.25
2022-11-22T23:06:08.148Z,101586.53
2022-11-22T23:08:36.369Z,101583.03
2022-11-22T23:11:06.535Z,101577.88
2022-11-22T23:13:36.168Z,101583.09
2022-11-22T23:16:04.239Z,101579.59
2022-11-22T23:18:32.315Z,101575.22
2022-11-22T23:21:00.720Z,101585.41
2022-11-22T23:23:29.029Z,101571.69
2022-11-22T23:25:57.294Z,101575.84
2022-11-22T23:28:25.117Z,101565.50
2022-11-22T23:30:54.464Z,101580.06
2022-11-22T23:33:22.275Z,101583.59
2022-11-22T23:35:50.134Z,101589.59
2022-11-22T23:38:17.960Z,101591.34
2022-11-22T23:40:45.761Z,101592.19
2022-11-22T23:43:13.564Z,101594.84
2022-11-22T23:45:46.466Z,101594.03
2022-11-22T23:48:15.977Z,101584.63
2022-11-22T23:50:43.962Z,101591.56
2022-11-22T23:53:12.014Z,101588.97
2022-11-22T23:55:39.916Z,101585.59
2022-11-22T23:58:07.766Z,101577.81
